Time;durP1;ratioP1;P1;durP2;ratioP2;P2;SDS_P1;SDS_P2;PMS_P1;PMS_P2;Temp;Humidity;BMP_temperature;BMP_pressure;BME280_temperature;BME280_humidity;BME280_pressure;Samples;Min_cycle;Max_cycle;Signal;HPM_P1;HPM_P2
2021/03/18 00:00:15;;;;;;;23.52;5.32;;;5.60;99.90;;;;;;4948710;29;20051;-88
2021/03/18 00:02:43;;;;;;;20.65;5.40;;;;;;;;;;4903891;29;20059;-88
2021/03/18 00:05:12;;;;;;;29.58;6.97;;;;;;;;;;4951375;28;20054;-87
2021/03/18 00:07:41;;;;;;;26.58;8.55;;;5.60;99.90;;;;;;4944311;29;20565;-87
2021/03/18 00:10:09;;;;;;;25.88;7.85;;;;;;;;;;4924558;29;20036;-86
2021/03/18 00:12:37;;;;;;;21.75;7.75;;;;;;;;;;4938461;29;20055;-86
2021/03/18 00:15:10;;;;;;;20.60;4.53;;;5.40;99.90;;;;;;4961190;29;20062;-86
2021/03/18 00:17:39;;;;;;;30.33;5.40;;;;;;;;;;4942088;29;20040;-86
2021/03/18 00:20:10;;;;;;;19.73;6.60;;;5.10;99.90;;;;;;4970081;29;20070;-86
2021/03/18 00:22:39;;;;;;;;;;;5.20;99.90;;;;;;4939195;29;20052;-85
2021/03/18 00:25:08;;;;;;;27.00;6.55;;;5.10;99.90;;;;;;4948165;29;19926;-86
2021/03/18 00:27:36;;;;;;;19.42;5.35;;;;;;;;;;4974358;29;20062;-85
2021/03/18 00:30:06;;;;;;;18.40;6.88;;;;;;;;;;4958895;29;20058;-86
2021/03/18 00:32:38;;;;;;;29.45;7.05;;;;;;;;;;4942066;29;20051;-86
2021/03/18 00:35:10;;;;;;;20.13;7.55;;;4.80;99.90;;;;;;4960344;28;20051;-83
2021/03/18 00:37:41;;;;;;;23.42;7.40;;;4.80;99.90;;;;;;4925659;29;20067;-86
2021/03/18 00:40:31;;;;;;;20.27;7.90;;;4.80;99.90;;;;;;4977709;29;20043;-85
2021/03/18 00:43:00;;;;;;;27.08;8.07;;;;;;;;;;4961009;29;20057;-85
2021/03/18 00:45:30;;;;;;;35.85;9.75;;;4.80;99.90;;;;;;4940542;29;20051;-85
2021/03/18 00:47:59;;;;;;;17.85;6.28;;;4.80;99.90;;;;;;4957153;29;20069;-86
2021/03/18 00:50:32;;;;;;;23.85;7.25;;;4.70;99.90;;;;;;4940792;29;20065;-87
2021/03/18 00:53:00;;;;;;;26.08;6.72;;;;;;;;;;4943302;29;20067;-86
2021/03/18 00:55:29;;;;;;;40.28;9.65;;;4.80;99.90;;;;;;4943860;29;20030;-87
2021/03/18 00:57:57;;;;;;;28.42;9.00;;;;;;;;;;4941199;29;20051;-86
2021/03/18 01:00:51;;;;;;;18.00;6.97;;;4.80;99.90;;;;;;4939537;29;20043;-86
2021/03/18 01:03:20;;;;;;;22.98;11.25;;;;;;;;;;4972883;28;20057;-86
2021/03/18 01:05:48;;;;;;;23.55;8.15;;;;;;;;;;4932599;29;20055;-85
2021/03/18 01:08:19;;;;;;;26.92;9.60;;;5.00;99.90;;;;;;4924368;29;20052;-87
2021/03/18 01:11:02;;;;;;;28.73;8.25;;;4.90;99.90;;;;;;4983360;28;20062;-88
2021/03/18 01:13:30;;;;;;;26.92;11.50;;;;;;;;;;4945881;29;20058;-84
2021/03/18 01:16:03;;;;;;;26.08;7.80;;;5.00;99.90;;;;;;4957629;28;20060;-86
2021/03/18 01:18:42;;;;;;;17.50;6.88;;;;;;;;;;4978295;28;20051;-88
2021/03/18 01:21:13;;;;;;;19.02;7.63;;;;;;;;;;4930905;29;20047;-86
2021/03/18 01:23:44;;;;;;;24.92;10.95;;;;;;;;;;4954500;29;20051;-86
2021/03/18 01:26:15;;;;;;;22.40;9.98;;;;;;;;;;4915860;29;20058;-86
2021/03/18 01:28:43;;;;;;;23.60;7.85;;;;;;;;;;4940286;29;20041;-86
2021/03/18 01:31:12;;;;;;;29.02;8.52;;;4.90;99.90;;;;;;4952837;29;20556;-86
2021/03/18 01:33:41;;;;;;;32.20;6.88;;;;;;;;;;4918425;29;20051;-85
2021/03/18 01:36:13;;;;;;;43.28;8.68;;;4.80;99.90;;;;;;4935591;29;20050;-85
2021/03/18 01:38:43;;;;;;;29.35;6.85;;;4.80;99.90;;;;;;4950192;29;20050;-86
2021/03/18 01:44:32;;;;;;;35.90;9.27;;;;;;;;;;5643466;23;20059;-94
2021/03/18 01:47:18;;;;;;;47.15;11.63;;;;;;;;;;4940154;29;20059;-95
2021/03/18 01:50:11;;;;;;;23.85;6.93;;;;;;;;;;4957107;29;20047;-94
2021/03/18 01:52:56;;;;;;;20.70;6.93;;;;;;;;;;4943971;29;20047;-94
2021/03/18 01:55:43;;;;;;;27.42;8.52;;;;;;;;;;4957132;29;20045;-94
2021/03/18 01:58:34;;;;;;;25.67;7.63;;;;;;;;;;4958098;29;20055;-95
2021/03/18 02:01:09;;;;;;;27.38;7.32;;;5.00;99.90;;;;;;4909283;29;20074;-92
2021/03/18 02:03:51;;;;;;;28.20;6.00;;;;;;;;;;4910921;29;20066;-95
2021/03/18 02:06:21;;;;;;;28.50;7.88;;;;;;;;;;4893929;29;20585;-95
2021/03/18 02:08:51;;;;;;;30.58;7.82;;;;;;;;;;4908710;29;20590;-94
2021/03/18 02:11:20;;;;;;;31.23;9.33;;;;;;;;;;4581065;29;10000157;-94
2021/03/18 02:13:48;;;;;;;32.90;6.90;;;;;;;;;;4919945;29;20047;-94
2021/03/18 02:16:30;;;;;;;20.67;6.28;;;5.20;99.90;;;;;;4931449;29;20059;-93
2021/03/18 02:19:33;;;;;;;35.83;7.55;;;5.30;99.90;;;;;;4913426;29;20501;-95
2021/03/18 02:22:56;;;;;;;26.15;8.13;;;5.40;99.90;;;;;;4923754;29;20608;-94
2021/03/18 02:25:28;;;;;;;19.30;6.05;;;;;;;;;;4905269;29;20063;-94
2021/03/18 02:28:25;;;;;;;26.77;9.57;;;;;;;;;;4903375;29;20618;-95
2021/03/18 02:31:00;;;;;;;17.85;6.30;;;;;;;;;;4906242;29;20081;-94
2021/03/18 02:33:35;;;;;;;23.58;6.60;;;;;;;;;;4921502;29;20047;-95
2021/03/18 02:36:11;;;;;;;23.58;6.55;;;;;;;;;;4911144;29;20051;-94
2021/03/18 02:38:59;;;;;;;31.65;12.02;;;;;;;;;;4926915;29;20046;-95
2021/03/18 02:41:58;;;;;;;22.67;5.40;;;5.60;99.90;;;;;;4920396;29;20078;-94
2021/03/18 02:44:39;;;;;;;26.70;6.82;;;;;;;;;;4894991;28;20070;-95
2021/03/18 02:47:12;;;;;;;19.92;7.65;;;;;;;;;;4922654;29;20071;-94
2021/03/18 02:49:46;;;;;;;22.00;6.03;;;5.60;99.90;;;;;;4906619;29;20056;-95
2021/03/18 02:52:23;;;;;;;24.75;10.50;;;;;;;;;;4922469;29;20054;-95
2021/03/18 02:54:56;;;;;;;22.40;5.93;;;;;;;;;;4924607;29;20051;-95
2021/03/18 02:57:30;;;;;;;20.83;6.03;;;;;;;;;;4913194;29;20051;-95
2021/03/18 03:00:01;;;;;;;36.50;8.80;;;5.50;99.90;;;;;;4941583;29;20043;-93
2021/03/18 03:02:31;;;;;;;40.92;9.95;;;;;;;;;;4926036;29;20062;-94
2021/03/18 03:05:05;;;;;;;49.67;8.65;;;;;;;;;;4957192;29;20059;-94
2021/03/18 03:07:34;;;;;;;30.33;7.68;;;;;;;;;;4908991;29;20047;-95
2021/03/18 03:10:04;;;;;;;35.83;9.18;;;;;;;;;;4938521;29;20062;-95
2021/03/18 03:12:33;;;;;;;33.83;10.85;;;;;;;;;;4927242;29;20082;-94
2021/03/18 03:15:04;;;;;;;26.23;9.05;;;5.10;99.90;;;;;;4924073;29;20066;-94
2021/03/18 03:17:34;;;;;;;32.50;8.38;;;5.30;99.90;;;;;;4913052;29;20059;-96
2021/03/18 03:20:05;;;;;;;24.02;7.25;;;5.20;99.90;;;;;;4925954;29;20043;-95
2021/03/18 03:22:37;;;;;;;29.70;9.70;;;;;;;;;;4911240;29;20062;-93
2021/03/18 03:25:09;;;;;;;32.40;11.40;;;;;;;;;;4927904;29;20059;-94
2021/03/18 03:27:37;;;;;;;20.40;6.40;;;;;;;;;;4928371;29;20059;-94
2021/03/18 03:30:08;;;;;;;35.38;8.07;;;;;;;;;;4927601;29;20055;-94
2021/03/18 03:32:39;;;;;;;46.08;12.23;;;;;;;;;;4929130;29;20070;-93
2021/03/18 03:35:08;;;;;;;33.38;9.57;;;;;;;;;;4931904;28;20058;-94
2021/03/18 03:37:36;;;;;;;40.55;12.65;;;;;;;;;;4925060;29;20047;-95
2021/03/18 03:40:07;;;;;;;38.40;14.25;;;;;;;;;;4946264;29;20074;-94
2021/03/18 03:42:35;;;;;;;46.50;10.75;;;;;;;;;;4916717;29;20065;-95
2021/03/18 03:45:04;;;;;;;44.80;9.77;;;;;;;;;;4927477;29;20066;-94
2021/03/18 03:47:32;;;;;;;39.25;9.55;;;;;;;;;;4928242;29;20051;-94
2021/03/18 03:50:07;;;;;;;39.03;9.60;;;;;;;;;;4946968;28;20059;-93
2021/03/18 03:53:24;;;;;;;37.05;10.43;;;5.50;99.90;;;;;;4946711;29;20059;-95
2021/03/18 03:56:03;;;;;;;31.95;9.23;;;5.50;99.90;;;;;;4951352;29;20051;-95
2021/03/18 03:58:35;;;;;;;31.45;9.90;;;;;;;;;;4920158;29;20052;-94
2021/03/18 04:01:07;;;;;;;45.15;10.82;;;5.50;99.90;;;;;;4912518;29;20107;-94
2021/03/18 04:03:36;;;;;;;31.58;9.55;;;;;;;;;;4941779;29;20051;-95
2021/03/18 04:06:06;;;;;;;35.33;9.40;;;5.60;99.90;;;;;;4946333;29;20058;-94
2021/03/18 04:08:36;;;;;;;37.47;10.50;;;;;;;;;;4931803;29;20047;-93
2021/03/18 04:11:09;;;;;;;33.65;10.65;;;;;;;;;;4936988;28;20059;-94
2021/03/18 04:13:37;;;;;;;27.10;9.63;;;;;;;;;;4950825;29;20058;-94
2021/03/18 04:16:06;;;;;;;46.65;11.05;;;;;;;;;;4941049;29;20047;-94
2021/03/18 04:18:54;;;;;;;37.35;10.60;;;;;;;;;;4920063;29;20070;-94
2021/03/18 04:21:27;;;;;;;30.90;8.30;;;;;;;;;;4920957;29;20070;-94
2021/03/18 04:23:55;;;;;;;31.08;10.98;;;;;;;;;;4935682;29;20055;-94
2021/03/18 04:26:25;;;;;;;53.60;11.40;;;;;;;;;;4951216;28;20047;-93
2021/03/18 04:28:57;;;;;;;;;;;5.80;99.90;;;;;;4932007;29;20055;-92
2021/03/18 04:31:41;;;;;;;41.17;9.68;;;5.80;99.90;;;;;;4932431;29;19928;-95
2021/03/18 04:34:13;;;;;;;34.03;9.82;;;5.80;99.90;;;;;;4948332;29;20086;-94
2021/03/18 04:36:43;;;;;;;32.13;8.73;;;5.80;99.90;;;;;;4965782;28;20051;-94
2021/03/18 04:39:12;;;;;;;25.55;8.70;;;5.80;99.90;;;;;;4931534;29;20054;-93
2021/03/18 04:41:41;;;;;;;41.92;9.15;;;;;;;;;;4938980;28;20047;-95
2021/03/18 04:44:10;;;;;;;29.33;9.38;;;;;;;;;;4944428;29;20067;-92
2021/03/18 04:46:43;;;;;;;58.53;11.23;;;;;;;;;;4934857;29;20048;-93
2021/03/18 04:49:17;;;;;;;38.15;10.95;;;5.90;99.90;;;;;;4931875;29;20063;-93
2021/03/18 04:51:46;;;;;;;35.75;9.63;;;;;;;;;;4929487;29;20070;-94
2021/03/18 04:54:28;;;;;;;30.40;11.13;;;;;;;;;;4940961;29;20047;-95
2021/03/18 04:56:57;;;;;;;37.85;8.75;;;5.80;99.90;;;;;;4932039;29;20610;-94
2021/03/18 04:59:26;;;;;;;27.50;9.93;;;;;;;;;;4929638;29;20070;-94
2021/03/18 05:01:56;;;;;;;33.65;11.82;;;5.90;99.90;;;;;;4945035;29;20058;-95
2021/03/18 05:04:40;;;;;;;31.80;10.30;;;5.90;99.90;;;;;;4912958;29;20059;-94
2021/03/18 05:07:09;;;;;;;28.92;8.52;;;5.90;99.90;;;;;;4925626;29;20059;-94
2021/03/18 05:09:39;;;;;;;36.63;13.23;;;5.90;99.90;;;;;;4929172;29;20062;-94
2021/03/18 05:12:08;;;;;;;41.95;11.60;;;6.00;99.90;;;;;;4912722;29;20066;-95
2021/03/18 05:14:36;;;;;;;32.15;8.50;;;;;;;;;;4924976;29;20051;-95
2021/03/18 05:17:05;;;;;;;27.88;7.55;;;;;;;;;;4920834;29;20043;-93
2021/03/18 05:19:33;;;;;;;22.10;8.00;;;;;;;;;;4928135;29;20123;-95
2021/03/18 05:22:03;;;;;;;34.90;9.40;;;6.10;99.90;;;;;;4941134;29;20047;-95
2021/03/18 05:24:40;;;;;;;36.85;9.40;;;;;;;;;;4923631;28;20058;-94
2021/03/18 05:27:24;;;;;;;25.27;10.38;;;;;;;;;;4973971;28;20465;-94
2021/03/18 05:30:09;;;;;;;51.70;9.93;;;;;;;;;;4924488;29;20062;-95
2021/03/18 05:32:38;;;;;;;46.47;8.57;;;;;;;;;;4599502;29;10000258;-92
2021/03/18 05:35:07;;;;;;;32.60;10.18;;;;;;;;;;4928022;29;20067;-94
2021/03/18 05:37:35;;;;;;;34.65;10.90;;;;;;;;;;4943933;29;20070;-95
2021/03/18 05:40:05;;;;;;;27.95;7.03;;;;;;;;;;4926198;29;20051;-95
2021/03/18 05:42:34;;;;;;;40.50;10.43;;;;;;;;;;4932720;29;20069;-95
2021/03/18 05:45:05;;;;;;;46.20;14.43;;;6.40;99.90;;;;;;4906165;29;20493;-95
2021/03/18 05:47:36;;;;;;;23.50;9.10;;;;;;;;;;4916658;29;20055;-94
2021/03/18 05:50:09;;;;;;;34.45;9.07;;;6.30;99.90;;;;;;4909996;29;20703;-93
2021/03/18 05:52:38;;;;;;;27.48;6.75;;;;;;;;;;4938748;29;20063;-96
2021/03/18 05:55:07;;;;;;;25.33;8.98;;;;;;;;;;4938785;29;20060;-95
2021/03/18 05:57:51;;;;;;;31.05;8.43;;;;;;;;;;4916758;29;20047;-95
2021/03/18 06:00:23;;;;;;;24.50;7.50;;;6.40;99.90;;;;;;4942502;29;20055;-93
2021/03/18 06:02:53;;;;;;;38.90;8.85;;;;;;;;;;4908793;29;20063;-94
2021/03/18 06:05:25;;;;;;;34.83;10.88;;;;;;;;;;4936940;29;20070;-94
2021/03/18 06:07:58;;;;;;;35.25;9.20;;;;;;;;;;4928023;29;20071;-95
2021/03/18 06:10:40;;;;;;;26.85;9.27;;;;;;;;;;4914547;28;20062;-94
2021/03/18 06:13:23;;;;;;;39.95;9.93;;;;;;;;;;4928480;29;20051;-94
2021/03/18 06:16:06;;;;;;;34.92;10.70;;;;;;;;;;4935307;29;20055;-94
2021/03/18 06:18:36;;;;;;;40.80;10.57;;;;;;;;;;4942215;29;20058;-94
2021/03/18 06:21:07;;;;;;;28.20;8.52;;;;;;;;;;4926509;29;20047;-94
2021/03/18 06:23:39;;;;;;;30.95;7.55;;;;;;;;;;4900474;29;20055;-94
2021/03/18 06:26:33;;;;;;;43.70;8.15;;;;;;;;;;4922567;29;20051;-95
2021/03/18 06:29:22;;;;;;;38.63;10.52;;;6.50;99.90;;;;;;4932954;29;20081;-94
2021/03/18 06:31:52;;;;;;;21.30;7.15;;;;;;;;;;4957149;28;20043;-95
2021/03/18 06:34:36;;;;;;;39.40;9.40;;;;;;;;;;4958008;29;20062;-95
2021/03/18 06:37:29;;;;;;;31.88;9.15;;;;;;;;;;4926213;29;20059;-95
2021/03/18 06:40:09;;;;;;;33.53;8.77;;;;;;;;;;4942045;29;20055;-93
2021/03/18 06:42:38;;;;;;;40.92;7.93;;;;;;;;;;4924872;29;20047;-95
2021/03/18 06:45:10;;;;;;;35.42;8.40;;;;;;;;;;4924254;29;20058;-94
2021/03/18 06:47:54;;;;;;;32.65;6.88;;;6.70;99.90;;;;;;4940869;29;20047;-95
2021/03/18 06:50:34;;;;;;;27.35;7.70;;;6.70;99.90;;;;;;4931120;29;20054;-95
2021/03/18 06:53:17;;;;;;;34.85;7.72;;;;;;;;;;4929626;29;20055;-95
2021/03/18 06:55:46;;;;;;;28.88;7.57;;;;;;;;;;4943994;29;20066;-95
2021/03/18 06:58:25;;;;;;;36.72;10.30;;;;;;;;;;4914724;29;20055;-92
2021/03/18 07:01:08;;;;;;;24.00;7.97;;;;;;;;;;4925799;28;20131;-93
2021/03/18 07:03:39;;;;;;;28.05;7.88;;;;;;;;;;4913163;29;20055;-94
2021/03/18 07:06:15;;;;;;;27.17;7.35;;;;;;;;;;4923599;29;20058;-95
2021/03/18 07:09:08;;;;;;;38.10;9.93;;;6.90;99.90;;;;;;4952207;28;20059;-96
2021/03/18 07:11:42;;;;;;;31.02;8.82;;;;;;;;;;4930212;29;20051;-95
2021/03/18 07:14:11;;;;;;;24.25;6.97;;;;;;;;;;4937325;29;20055;-95
2021/03/18 07:16:49;;;;;;;30.42;11.70;;;;;;;;;;4945882;29;20058;-95
2021/03/18 07:19:34;;;;;;;34.33;7.78;;;;;;;;;;4937910;29;20055;-95
2021/03/18 07:22:30;;;;;;;24.97;9.10;;;;;;;;;;4931542;29;20059;-95
2021/03/18 07:25:31;;;;;;;27.85;8.77;;;;;;;;;;4929225;29;20057;-95
2021/03/18 07:28:34;;;;;;;39.67;9.15;;;;;;;;;;4946956;29;20062;-96
2021/03/18 07:32:21;;;;;;;21.33;5.90;;;;;;;;;;4951216;29;20043;-94
2021/03/18 07:35:20;;;;;;;25.08;6.65;;;;;;;;;;4964650;28;20157;-95
2021/03/18 07:37:51;;;;;;;29.27;6.50;;;;;;;;;;4941912;29;20055;-94
2021/03/18 07:40:23;;;;;;;25.73;7.30;;;;;;;;;;4962400;28;20054;-95
2021/03/18 07:42:57;;;;;;;19.60;6.18;;;;;;;;;;4926399;29;20055;-96
2021/03/18 07:45:31;;;;;;;37.45;9.38;;;;;;;;;;4951722;28;20066;-93
2021/03/18 07:48:00;;;;;;;24.73;6.35;;;7.40;99.90;;;;;;4921022;29;20043;-94
2021/03/18 07:50:36;;;;;;;31.17;8.48;;;7.50;99.90;;;;;;4929747;29;20059;-92
2021/03/18 07:53:13;;;;;;;28.23;7.90;;;7.50;99.90;;;;;;4938039;29;20051;-93
2021/03/18 07:55:48;;;;;;;31.50;7.35;;;7.40;99.90;;;;;;4926624;29;20055;-93
2021/03/18 07:58:35;;;;;;;24.45;7.53;;;;;;;;;;4958843;29;20039;-93
2021/03/18 08:01:07;;;;;;;29.08;6.95;;;;;;;;;;4933863;29;20047;-93
2021/03/18 08:03:36;;;;;;;30.75;6.38;;;;;;;;;;4948375;29;20074;-93
2021/03/18 08:06:06;;;;;;;23.15;7.05;;;;;;;;;;4918928;29;20051;-94
2021/03/18 08:08:34;;;;;;;20.73;8.17;;;;;;;;;;4930333;29;20055;-90
2021/03/18 08:11:06;;;;;;;57.53;9.27;;;;;;;;;;4942119;29;20294;-94
2021/03/18 08:13:36;;;;;;;26.58;9.88;;;7.70;99.90;;;;;;4939462;29;20397;-94
2021/03/18 08:16:32;;;;;;;26.95;9.50;;;7.80;99.90;;;;;;4918842;28;20076;-90
2021/03/18 08:19:07;;;;;;;32.15;9.05;;;7.80;99.90;;;;;;4922509;29;20051;-92
2021/03/18 08:21:43;;;;;;;33.85;9.13;;;7.80;99.90;;;;;;4941489;29;20062;-94
2021/03/18 08:24:14;;;;;;;27.88;7.72;;;;;;;;;;4906408;29;20055;-93
2021/03/18 08:26:48;;;;;;;27.02;9.05;;;7.80;99.90;;;;;;4950758;29;20047;-92
2021/03/18 08:29:16;;;;;;;26.00;10.60;;;;;;;;;;4933648;29;20047;-93
2021/03/18 08:31:58;;;;;;;26.90;6.95;;;;;;;;;;4923489;29;20047;-93
2021/03/18 08:34:41;;;;;;;29.55;7.85;;;;;;;;;;4939538;28;20050;-91
2021/03/18 08:37:10;;;;;;;23.77;7.35;;;;;;;;;;4953821;29;20414;-91
2021/03/18 08:39:50;;;;;;;18.42;7.32;;;7.90;99.90;;;;;;4934530;29;20055;-94
2021/03/18 08:42:28;;;;;;;28.67;8.65;;;;;;;;;;4939078;29;20051;-94
2021/03/18 08:45:11;;;;;;;39.53;9.15;;;8.00;99.90;;;;;;4908472;29;20429;-92
2021/03/18 08:47:41;;;;;;;21.80;6.68;;;10.10;99.90;;;;;;4918122;29;20063;-94
2021/03/18 08:50:13;;;;;;;24.08;7.40;;;8.00;99.90;;;;;;4926304;29;20051;-93
2021/03/18 08:52:45;;;;;;;37.13;7.53;;;8.10;99.90;;;;;;4941228;29;20055;-93
2021/03/18 08:55:37;;;;;;;35.40;9.32;;;8.00;99.90;;;;;;4926982;29;20051;-94
2021/03/18 08:58:09;;;;;;;26.63;6.22;;;;;;;;;;4923371;29;20054;-94
2021/03/18 09:00:45;;;;;;;33.30;9.45;;;;;;;;;;4926146;29;20059;-94
2021/03/18 09:03:22;;;;;;;24.02;7.53;;;;;;;;;;4919101;29;20394;-92
2021/03/18 09:05:52;;;;;;;28.60;9.27;;;;;;;;;;4920940;29;20051;-92
2021/03/18 09:08:27;;;;;;;17.52;7.43;;;;;;;;;;4953334;29;20047;-94
2021/03/18 09:10:59;;;;;;;26.08;6.68;;;;;;;;;;4937982;29;20063;-92
2021/03/18 09:13:47;;;;;;;28.40;6.50;;;;;;;;;;4922749;29;20053;-93
2021/03/18 09:16:31;;;;;;;23.10;6.53;;;;;;;;;;4934057;29;20039;-93
2021/03/18 09:19:05;;;;;;;18.05;6.10;;;;;;;;;;4932128;29;20047;-93
2021/03/18 09:21:43;;;;;;;25.73;7.03;;;8.40;99.90;;;;;;4927583;29;20062;-94
2021/03/18 09:24:14;;;;;;;23.13;7.25;;;;;;;;;;4958662;28;20047;-93
2021/03/18 09:26:48;;;;;;;49.67;15.38;;;;;;;;;;4948772;29;20051;-93
2021/03/18 09:29:33;;;;;;;22.52;6.50;;;;;;;;;;4944630;29;20055;-94
2021/03/18 09:32:12;;;;;;;16.67;6.13;;;;;;;;;;4919219;29;20047;-92
2021/03/18 09:34:52;;;;;;;;;;;8.50;99.90;;;;;;4948483;29;20047;-93
2021/03/18 09:37:50;;;;;;;27.77;9.68;;;8.50;99.90;;;;;;4964480;29;19926;-92
2021/03/18 09:40:31;;;;;;;26.45;7.60;;;8.40;99.90;;;;;;4946659;29;20289;-92
2021/03/18 09:43:15;;;;;;;19.23;5.75;;;8.60;99.90;;;;;;4944583;29;20051;-94
2021/03/18 09:45:56;;;;;;;21.98;7.38;;;;;;;;;;4910143;29;20059;-94
2021/03/18 09:48:32;;;;;;;30.75;7.05;;;;;;;;;;4912754;29;20058;-90
2021/03/18 09:51:05;;;;;;;30.35;7.63;;;;;;;;;;4961456;29;20062;-93
2021/03/18 09:53:41;;;;;;;24.38;7.30;;;;;;;;;;4936927;29;20065;-92
2021/03/18 09:56:16;;;;;;;27.83;6.90;;;8.60;99.90;;;;;;4932717;29;20050;-92
2021/03/18 09:58:53;;;;;;;26.83;8.82;;;;;;;;;;4968360;29;20055;-93
2021/03/18 10:01:23;;;;;;;23.00;7.22;;;;;;;;;;4917508;29;20175;-93
2021/03/18 10:04:06;;;;;;;22.08;9.80;;;;;;;;;;4933581;29;20051;-92
2021/03/18 10:06:51;;;;;;;27.92;8.48;;;;;;;;;;4932363;29;20055;-95
2021/03/18 10:09:31;;;;;;;18.15;7.20;;;;;;;;;;4931384;29;20047;-94
2021/03/18 10:12:07;;;;;;;26.95;7.80;;;;;;;;;;4952582;29;20502;-92
2021/03/18 10:14:36;;;;;;;21.83;7.55;;;;;;;;;;4934663;29;20491;-92
2021/03/18 10:17:15;;;;;;;22.90;6.68;;;;;;;;;;4933434;29;20057;-92
2021/03/18 10:19:55;;;;;;;31.05;8.02;;;;;;;;;;4929765;29;20054;-92
2021/03/18 10:22:41;;;;;;;16.85;6.05;;;;;;;;;;4942451;29;20259;-93
2021/03/18 10:25:16;;;;;;;29.67;8.73;;;;;;;;;;4946660;29;20649;-92
2021/03/18 10:27:48;;;;;;;15.13;6.53;;;;;;;;;;4918418;29;20499;-92
2021/03/18 10:30:22;;;;;;;29.13;7.35;;;;;;;;;;4960345;28;20063;-92
2021/03/18 10:33:20;;;;;;;20.85;9.40;;;9.30;99.90;;;;;;4932774;28;20043;-93
2021/03/18 10:35:53;;;;;;;26.48;7.18;;;;;;;;;;4943479;29;20055;-90
2021/03/18 10:38:31;;;;;;;20.77;6.90;;;;;;;;;;4918521;29;20043;-92
2021/03/18 10:41:14;;;;;;;18.63;5.80;;;9.20;99.90;;;;;;4932035;29;20051;-92
2021/03/18 10:43:45;;;;;;;27.05;7.38;;;9.40;99.90;;;;;;4935489;28;20065;-90
2021/03/18 10:46:18;;;;;;;31.58;7.35;;;9.20;99.90;;;;;;4928222;29;20053;-93
2021/03/18 10:48:47;;;;;;;23.05;8.45;;;9.00;99.90;;;;;;4954961;28;20047;-92
2021/03/18 10:51:20;;;;;;;20.65;8.13;;;;;;;;;;4937690;29;20070;-92
2021/03/18 10:53:55;;;;;;;26.45;8.05;;;;;;;;;;4929675;29;20059;-95
2021/03/18 10:56:24;;;;;;;23.00;7.85;;;;;;;;;;4938639;29;20070;-93
2021/03/18 10:58:57;;;;;;;;;;;9.00;99.90;;;;;;4937647;29;20051;-93
2021/03/18 11:01:31;;;;;;;21.30;7.47;;;8.90;99.90;;;;;;4940449;29;19929;-93
2021/03/18 11:04:04;;;;;;;30.25;9.60;;;;;;;;;;4935622;29;20058;-91
2021/03/18 11:06:33;;;;;;;26.03;7.17;;;;;;;;;;4928862;29;20057;-91
2021/03/18 11:09:02;;;;;;;19.02;8.82;;;;;;;;;;4961213;29;20309;-92
2021/03/18 11:11:32;;;;;;;22.95;7.32;;;9.10;99.90;;;;;;4946502;29;20052;-92
2021/03/18 11:14:06;;;;;;;19.55;7.68;;;;;;;;;;4915752;29;20062;-93
2021/03/18 11:16:40;;;;;;;21.98;7.82;;;;;;;;;;4946693;29;20061;-92
2021/03/18 11:19:21;;;;;;;27.80;8.82;;;8.70;99.90;;;;;;4931649;29;20051;-92
2021/03/18 11:22:04;;;;;;;18.98;6.25;;;8.70;99.90;;;;;;4922985;29;20069;-91
2021/03/18 11:24:35;;;;;;;32.22;10.70;;;;;;;;;;4938416;29;20055;-91
2021/03/18 11:27:07;;;;;;;25.77;8.02;;;;;;;;;;4939954;29;20051;-90
2021/03/18 11:29:38;;;;;;;24.48;7.25;;;;;;;;;;4922782;28;20684;-91
2021/03/18 11:32:08;;;;;;;15.30;5.80;;;;;;;;;;4923630;29;20047;-91
2021/03/18 11:34:38;;;;;;;26.73;8.68;;;;;;;;;;4931016;29;20047;-92
2021/03/18 11:37:13;;;;;;;23.45;8.00;;;8.50;99.90;;;;;;4939475;29;20048;-91
2021/03/18 11:39:42;;;;;;;27.90;7.75;;;;;;;;;;4920094;29;20048;-90
2021/03/18 11:42:10;;;;;;;30.50;6.80;;;;;;;;;;4926605;29;20047;-91
2021/03/18 11:44:38;;;;;;;20.23;6.97;;;;;;;;;;4936030;29;20312;-91
2021/03/18 11:47:12;;;;;;;17.02;7.03;;;;;;;;;;4926993;29;20051;-91
2021/03/18 11:49:46;;;;;;;22.20;6.93;;;8.60;99.90;;;;;;4962297;29;20055;-90
2021/03/18 11:52:16;;;;;;;14.48;5.50;;;;;;;;;;4925794;29;20063;-91
2021/03/18 11:54:44;;;;;;;16.08;7.10;;;;;;;;;;4940724;29;20056;-91
2021/03/18 11:57:13;;;;;;;27.13;7.75;;;;;;;;;;4938138;29;20047;-90
2021/03/18 11:59:45;;;;;;;19.85;7.97;;;;;;;;;;4926949;29;20043;-92
2021/03/18 12:02:13;;;;;;;25.73;7.53;;;;;;;;;;4938052;28;20051;-92
2021/03/18 12:04:45;;;;;;;20.90;6.03;;;;;;;;;;4926861;29;20058;-93
2021/03/18 12:07:16;;;;;;;19.75;8.20;;;;;;;;;;4940878;29;20048;-92
2021/03/18 12:09:44;;;;;;;28.02;10.90;;;;;;;;;;4956296;29;20047;-92
2021/03/18 12:12:14;;;;;;;32.35;9.65;;;;;;;;;;4938046;28;20074;-91
2021/03/18 12:14:43;;;;;;;16.80;6.47;;;;;;;;;;4931321;29;20059;-93
2021/03/18 12:17:11;;;;;;;24.55;8.98;;;;;;;;;;4926091;29;20052;-91
2021/03/18 12:19:40;;;;;;;21.15;6.95;;;;;;;;;;4926320;29;20051;-91
2021/03/18 12:22:24;;;;;;;18.10;6.13;;;;;;;;;;4955038;28;20055;-90
2021/03/18 12:24:51;;;;;;;25.20;6.28;;;;;;;;;;4926173;29;20055;-91
2021/03/18 12:27:19;;;;;;;19.33;6.70;;;;;;;;;;4922070;29;20067;-90
2021/03/18 12:29:47;;;;;;;34.20;8.50;;;;;;;;;;4916734;29;20055;-91
2021/03/18 12:32:19;;;;;;;27.55;10.10;;;;;;;;;;4927369;29;20052;-91
2021/03/18 12:34:50;;;;;;;20.98;7.43;;;;;;;;;;4936341;29;20047;-91
2021/03/18 12:37:18;;;;;;;28.10;8.70;;;;;;;;;;4915653;29;20058;-90
2021/03/18 12:39:47;;;;;;;23.58;10.95;;;;;;;;;;4932265;29;20055;-90
2021/03/18 12:42:15;;;;;;;22.83;7.38;;;;;;;;;;4950389;29;20127;-90
2021/03/18 12:44:43;;;;;;;32.25;8.85;;;;;;;;;;4943745;28;20054;-89
2021/03/18 12:47:13;;;;;;;22.20;8.13;;;;;;;;;;4963658;29;20054;-91
2021/03/18 12:49:41;;;;;;;28.13;11.30;;;;;;;;;;4958427;28;20495;-91
2021/03/18 12:52:09;;;;;;;20.38;7.38;;;;;;;;;;4930411;29;20050;-90
2021/03/18 12:54:38;;;;;;;21.88;8.23;;;;;;;;;;4943128;29;20043;-90
2021/03/18 12:57:09;;;;;;;20.50;7.53;;;;;;;;;;4945954;29;20051;-90
2021/03/18 12:59:41;;;;;;;27.60;8.68;;;;;;;;;;4916066;29;20055;-90
2021/03/18 13:02:11;;;;;;;21.05;8.48;;;;;;;;;;4929312;29;20047;-90
2021/03/18 13:04:41;;;;;;;22.25;7.03;;;;;;;;;;4930364;29;20043;-90
2021/03/18 13:07:10;;;;;;;;;;;9.40;99.90;;;;;;4938319;28;20057;-90
2021/03/18 13:09:42;;;;;;;26.75;10.55;;;;;;;;;;4944823;29;19934;-90
2021/03/18 13:12:10;;;;;;;30.27;9.43;;;;;;;;;;4958773;28;20051;-90
2021/03/18 13:14:38;;;;;;;24.13;9.40;;;;;;;;;;4918820;29;20093;-91
2021/03/18 13:17:06;;;;;;;30.95;9.00;;;;;;;;;;4917423;29;20055;-90
2021/03/18 13:19:34;;;;;;;25.25;7.47;;;;;;;;;;4951883;28;20084;-90
2021/03/18 13:22:06;;;;;;;24.75;8.77;;;;;;;;;;4952117;28;20063;-91
2021/03/18 13:24:34;;;;;;;27.77;9.45;;;;;;;;;;4921098;29;20066;-89
2021/03/18 13:27:02;;;;;;;17.92;7.38;;;;;;;;;;4931213;28;20054;-91
2021/03/18 13:29:31;;;;;;;31.33;7.57;;;;;;;;;;4933972;29;20043;-91
2021/03/18 13:31:59;;;;;;;20.15;7.18;;;9.00;99.90;;;;;;4945924;28;20044;-90
2021/03/18 13:34:27;;;;;;;28.55;8.15;;;;;;;;;;4943464;28;20054;-91
2021/03/18 13:36:56;;;;;;;38.42;9.48;;;;;;;;;;4934058;29;20055;-88
2021/03/18 13:39:25;;;;;;;31.60;8.60;;;;;;;;;;4948215;29;20027;-95
2021/03/18 13:42:03;;;;;;;24.55;8.68;;;;;;;;;;4928277;28;20043;-95
2021/03/18 13:45:46;;;;;;;24.65;7.13;;;;;;;;;;4967554;28;20055;-95
2021/03/18 13:49:30;;;;;;;23.33;6.95;;;;;;;;;;4900666;29;20060;-93
2021/03/18 13:53:19;;;;;;;19.83;7.20;;;;;;;;;;4910651;29;20037;-94
2021/03/18 14:13:00;;;;;;;16.00;6.20;;;;;;;;;;4644813;23;20054;-92
2021/03/18 14:15:28;;;;;;;19.15;6.38;;;;;;;;;;4963239;28;20386;-90
2021/03/18 14:17:56;;;;;;;18.45;9.30;;;;;;;;;;4958577;28;20050;-93
2021/03/18 14:20:26;;;;;;;16.55;7.38;;;9.70;99.90;;;;;;4963604;28;20061;-91
2021/03/18 14:22:54;;;;;;;23.08;6.95;;;;;;;;;;4981645;28;20061;-93
2021/03/18 14:25:25;;;;;;;30.50;8.95;;;;;;;;;;4977903;28;20052;-93
2021/03/18 14:27:53;;;;;;;24.45;7.28;;;;;;;;;;5000509;28;20045;-92
2021/03/18 14:30:43;;;;;;;16.77;6.78;;;9.50;99.90;;;;;;4978363;28;20050;-92
2021/03/18 14:33:14;;;;;;;23.02;7.88;;;;;;;;;;4988839;28;20050;-90
2021/03/18 14:35:46;;;;;;;30.65;7.80;;;;;;;;;;4996931;28;20382;-92
2021/03/18 14:38:14;;;;;;;33.55;9.75;;;;;;;;;;4967618;28;20061;-94
2021/03/18 14:40:43;;;;;;;21.27;9.38;;;;;;;;;;4979021;28;20053;-92
2021/03/18 14:43:12;;;;;;;31.98;9.40;;;;;;;;;;4980189;28;20049;-94
2021/03/18 14:45:45;;;;;;;29.63;9.45;;;9.60;99.90;;;;;;4943813;28;20517;-91
2021/03/18 14:48:14;;;;;;;24.50;9.25;;;;;;;;;;4959955;28;20042;-93
2021/03/18 14:51:01;;;;;;;24.52;8.23;;;;;;;;;;4981390;28;20597;-92
2021/03/18 14:53:47;;;;;;;25.65;11.15;;;;;;;;;;4979155;28;20042;-91
2021/03/18 14:56:33;;;;;;;32.97;11.35;;;;;;;;;;4980947;28;20058;-93
2021/03/18 14:59:41;;;;;;;24.65;9.50;;;;;;;;;;4984835;28;20393;-94
2021/03/18 15:02:27;;;;;;;26.13;12.00;;;;;;;;;;4967271;28;20506;-92
2021/03/18 15:04:57;;;;;;;22.90;8.65;;;;;;;;;;4976318;28;20074;-92